Time;durP1;ratioP1;P1;durP2;ratioP2;P2;SDS_P1;SDS_P2;PMS_P1;PMS_P2;Temp;Humidity;BMP_temperature;BMP_pressure;BME280_temperature;BME280_humidity;BME280_pressure;Samples;Min_cycle;Max_cycle;Signal;HPM_P1;HPM_P2
2023/10/17 00:00:58;;;;;;;11.70;6.10;;;;;;;;;;5055504;28;20198;-89
2023/10/17 00:03:25;;;;;;;9.30;6.05;;;;;;;;;;5055668;28;20191;-89
2023/10/17 00:05:56;;;;;;;10.00;7.35;;;;;;;;;;5055701;28;20214;-89
2023/10/17 00:08:27;;;;;;;10.05;7.38;;;;;;;;;;5055015;28;20642;-89
2023/10/17 00:10:56;;;;;;;8.65;5.93;;;;;;;;;;5055658;28;20194;-89
2023/10/17 00:13:38;;;;;;;9.48;6.25;;;;;;;;;;5055265;28;20245;-89
2023/10/17 00:16:11;;;;;;;8.30;6.32;;;;;;;;;;5055283;28;20214;-89
2023/10/17 00:18:39;;;;;;;8.05;6.25;;;;;;;;;;5055451;28;20179;-89
2023/10/17 00:21:18;;;;;;;11.55;7.40;;;;;;;;;;5055278;28;20218;-89
2023/10/17 00:23:46;;;;;;;11.13;7.38;;;;;;;;;;5055463;28;20179;-88
2023/10/17 00:26:14;;;;;;;11.60;7.53;;;;;;;;;;5054894;28;20218;-88
2023/10/17 00:28:42;;;;;;;8.20;6.03;;;;;;;;;;5053736;28;20218;-89
2023/10/17 00:31:10;;;;;;;8.98;6.50;;;;;;;;;;5054695;28;20191;-88
2023/10/17 00:33:41;;;;;;;9.77;6.28;;;;;;;;;;5054874;28;20226;-89
2023/10/17 00:36:14;;;;;;;9.52;5.72;;;;;;;;;;5054895;28;20187;-89
2023/10/17 00:38:43;;;;;;;9.23;6.22;;;;;;;;;;5055335;28;20195;-88
2023/10/17 00:41:16;;;;;;;10.73;6.80;;;;;;;;;;5055032;28;20623;-88
2023/10/17 00:43:43;;;;;;;9.60;6.18;;;;;;;;;;5054598;28;20527;-88
2023/10/17 00:46:10;;;;;;;10.35;7.25;;;;;;;;;;5054776;28;20210;-89
2023/10/17 00:48:38;;;;;;;13.40;7.80;;;;;;;;;;5054839;28;20227;-89
2023/10/17 00:51:08;;;;;;;12.52;8.35;;;;;;;;;;5055203;28;20260;-89
2023/10/17 00:53:40;;;;;;;10.68;7.63;;;;;;;;;;5054559;28;20179;-89
2023/10/17 00:56:08;;;;;;;8.70;6.70;;;;;;;;;;5054948;28;20187;-89
2023/10/17 00:58:35;;;;;;;10.90;8.20;;;;;;;;;;5054787;28;20191;-89
2023/10/17 01:01:14;;;;;;;10.35;7.40;;;;;;;;;;5054298;28;20194;-89
2023/10/17 01:03:43;;;;;;;7.68;6.40;;;;;;;;;;5053760;28;20228;-89
2023/10/17 01:06:23;;;;;;;9.73;6.97;;;;;;;;;;5054485;28;20226;-89
2023/10/17 01:08:53;;;;;;;12.50;6.82;;;;;;;;;;5054202;28;20274;-89
2023/10/17 01:11:27;;;;;;;10.20;7.47;;;;;;;;;;5054139;28;20389;-89
2023/10/17 01:13:57;;;;;;;10.80;7.35;;;;;;;;;;5053833;28;20179;-88
2023/10/17 01:16:25;;;;;;;10.05;7.40;;;;;;;;;;5054179;28;20653;-88
2023/10/17 01:18:53;;;;;;;8.05;6.78;;;;;;;;;;5053912;28;20673;-88
2023/10/17 01:21:21;;;;;;;12.13;7.72;;;;;;;;;;5054290;28;20199;-88
2023/10/17 01:23:49;;;;;;;9.80;6.93;;;;;;;;;;5054243;28;20274;-89
2023/10/17 01:26:23;;;;;;;11.93;8.57;;;;;;;;;;5053647;28;20221;-89
2023/10/17 01:28:51;;;;;;;9.85;6.55;;;;;;;;;;5054294;28;20198;-89
2023/10/17 01:31:24;;;;;;;9.77;6.45;;;;;;;;;;5054086;28;20199;-89
2023/10/17 01:33:54;;;;;;;10.40;7.28;;;;;;;;;;5053561;28;20179;-89
2023/10/17 01:36:21;;;;;;;9.50;6.20;;;;;;;;;;5052833;28;20253;-89
2023/10/17 01:38:49;;;;;;;10.05;6.50;;;;;;;;;;5053878;28;20218;-88
2023/10/17 01:41:19;;;;;;;9.27;6.45;;;;;;;;;;5053539;28;20187;-89
2023/10/17 01:43:47;;;;;;;11.35;7.13;;;;;;;;;;5053886;28;20610;-88
2023/10/17 01:46:16;;;;;;;10.18;6.93;;;;;;;;;;5053846;28;20292;-88
2023/10/17 01:48:47;;;;;;;9.13;6.93;;;;;;;;;;5052800;28;20257;-89
2023/10/17 01:51:15;;;;;;;6.90;5.20;;;;;;;;;;5053508;28;20266;-89
2023/10/17 01:53:43;;;;;;;9.63;6.43;;;;;;;;;;5053476;28;20669;-88
2023/10/17 01:56:14;;;;;;;10.50;6.55;;;;;;;;;;5053891;28;20528;-89
2023/10/17 01:58:48;;;;;;;9.68;6.25;;;;;;;;;;5053423;28;20215;-89
2023/10/17 02:01:17;;;;;;;8.27;6.45;;;;;;;;;;5053024;28;20270;-89
2023/10/17 02:03:44;;;;;;;10.00;6.43;;;;;;;;;;5053274;28;20221;-88
2023/10/17 02:06:16;;;;;;;8.88;6.60;;;;;;;;;;5053664;28;20218;-89
2023/10/17 02:08:43;;;;;;;9.98;6.97;;;;;;;;;;5053333;28;20187;-89
2023/10/17 02:11:18;;;;;;;10.45;6.97;;;;;;;;;;5053573;28;20277;-89
2023/10/17 02:13:47;;;;;;;12.07;8.38;;;;;;;;;;5053522;28;20208;-88
2023/10/17 02:16:15;;;;;;;9.60;7.45;;;;;;;;;;5053480;28;20556;-89
2023/10/17 02:18:44;;;;;;;11.05;7.22;;;;;;;;;;5053364;28;20191;-87
2023/10/17 02:21:12;;;;;;;9.63;7.20;;;;;;;;;;5053582;28;20268;-88
2023/10/17 02:23:49;;;;;;;9.02;6.18;;;;;;;;;;5053358;28;20187;-88
2023/10/17 02:26:21;;;;;;;8.95;6.72;;;;;;;;;;5052647;28;20194;-89
2023/10/17 02:28:50;;;;;;;10.77;7.28;;;;;;;;;;5053161;28;20191;-88
2023/10/17 02:31:17;;;;;;;10.68;7.80;;;;;;;;;;5052427;28;20186;-87
2023/10/17 02:33:45;;;;;;;9.32;6.65;;;;;;;;;;5053072;28;20191;-89
2023/10/17 02:36:13;;;;;;;15.00;7.25;;;;;;;;;;5052915;28;20205;-89
2023/10/17 02:38:41;;;;;;;16.85;9.55;;;;;;;;;;5053347;28;20191;-87
2023/10/17 02:41:13;;;;;;;13.20;7.10;;;;;;;;;;5052689;28;20187;-89
2023/10/17 02:43:41;;;;;;;9.20;7.43;;;;;;;;;;5052938;28;20783;-89
2023/10/17 02:46:12;;;;;;;56.55;29.77;;;;;;;;;;5052776;28;20211;-88
2023/10/17 02:48:40;;;;;;;21.15;12.98;;;;;;;;;;5052775;28;20225;-88
2023/10/17 02:51:30;;;;;;;13.90;8.13;;;;;;;;;;5054214;28;20220;-89
2023/10/17 02:53:58;;;;;;;10.50;6.97;;;;;;;;;;5056749;28;20210;-89
2023/10/17 02:56:26;;;;;;;8.88;5.63;;;;;;;;;;5057070;28;20208;-89
2023/10/17 02:59:04;;;;;;;11.88;8.07;;;;;;;;;;5056983;28;20186;-89
2023/10/17 03:01:33;;;;;;;13.93;8.93;;;;;;;;;;5057002;28;20183;-88
2023/10/17 03:04:02;;;;;;;9.40;7.82;;;;;;;;;;5056861;28;20272;-89
2023/10/17 03:06:29;;;;;;;10.18;7.65;;;;;;;;;;5055875;28;20260;-89
2023/10/17 03:09:14;;;;;;;11.40;8.63;;;;;;;;;;5056565;28;20191;-89
2023/10/17 03:11:50;;;;;;;12.13;8.60;;;;;;;;;;5057164;28;20187;-89
2023/10/17 03:14:22;;;;;;;13.75;9.13;;;;;;;;;;5056845;28;20186;-89
2023/10/17 03:16:52;;;;;;;15.23;9.27;;;;;;;;;;5056432;28;20186;-88
2023/10/17 03:19:25;;;;;;;13.40;9.07;;;;;;;;;;5055993;28;20182;-88
2023/10/17 03:21:53;;;;;;;13.48;8.90;;;;;;;;;;5056817;28;20202;-88
2023/10/17 03:24:28;;;;;;;14.30;9.70;;;;;;;;;;5056514;28;20187;-89
2023/10/17 03:26:55;;;;;;;14.02;9.50;;;;;;;;;;5056369;28;20202;-89
2023/10/17 03:29:24;;;;;;;13.82;9.95;;;;;;;;;;5056103;28;20634;-89
2023/10/17 03:31:59;;;;;;;18.42;12.25;;;;;;;;;;5056054;28;20222;-89
2023/10/17 03:34:34;;;;;;;17.35;12.45;;;;;;;;;;5056352;28;20178;-89
2023/10/17 03:37:26;;;;;;;17.75;10.20;;;;;;;;;;5056052;28;20186;-89
2023/10/17 03:39:52;;;;;;;18.95;9.40;;;;;;;;;;5055727;28;20260;-90
2023/10/17 03:42:31;;;;;;;18.92;9.55;;;;;;;;;;5056456;28;20199;-88
2023/10/17 03:44:59;;;;;;;17.10;10.25;;;;;;;;;;5056128;28;20221;-89
2023/10/17 03:47:30;;;;;;;16.63;12.13;;;;;;;;;;5055311;28;20551;-88
2023/10/17 03:49:57;;;;;;;16.50;10.98;;;;;;;;;;5036205;28;20184;-89
2023/10/17 03:52:25;;;;;;;16.65;11.02;;;;;;;;;;5035823;28;20199;-89
2023/10/17 03:54:52;;;;;;;19.20;12.55;;;;;;;;;;5035931;28;20239;-90
2023/10/17 03:57:25;;;;;;;20.10;11.93;;;;;;;;;;5036006;28;20644;-89
2023/10/17 03:59:56;;;;;;;17.27;11.27;;;;;;;;;;5037723;28;20266;-89
2023/10/17 04:02:24;;;;;;;17.67;12.05;;;;;;;;;;5054277;28;20222;-89
2023/10/17 04:04:54;;;;;;;18.25;11.52;;;;;;;;;;5055320;28;20199;-89
2023/10/17 04:07:26;;;;;;;16.77;10.05;;;;;;;;;;5055601;28;20210;-89
2023/10/17 04:10:05;;;;;;;20.08;11.52;;;;;;;;;;5055936;28;20183;-89
2023/10/17 04:12:38;;;;;;;17.80;11.68;;;;;;;;;;5055129;28;20647;-89
2023/10/17 04:15:08;;;;;;;19.42;11.55;;;;;;;;;;5055768;28;20193;-89
2023/10/17 04:17:36;;;;;;;15.90;9.98;;;;;;;;;;5055476;28;20195;-89
2023/10/17 04:20:12;;;;;;;15.77;10.80;;;;;;;;;;5055237;28;20191;-89
2023/10/17 04:22:39;;;;;;;19.30;12.70;;;;;;;;;;5055180;28;20182;-89
2023/10/17 04:25:19;;;;;;;19.70;12.00;;;;;;;;;;5055424;28;20206;-89
2023/10/17 04:27:46;;;;;;;17.98;11.80;;;;;;;;;;5055282;28;20209;-89
2023/10/17 04:30:17;;;;;;;19.00;12.60;;;;;;;;;;5055492;28;20220;-89
2023/10/17 04:32:45;;;;;;;18.60;11.73;;;;;;;;;;5054878;28;20179;-89
2023/10/17 04:35:13;;;;;;;18.35;12.32;;;;;;;;;;5054746;28;20560;-89
2023/10/17 04:37:44;;;;;;;20.25;12.20;;;;;;;;;;5034920;28;20207;-89
2023/10/17 04:40:37;;;;;;;14.65;10.55;;;;;;;;;;5035203;28;20531;-89
2023/10/17 04:43:44;;;;;;;18.60;12.65;;;;;;;;;;5035105;28;20202;-89
2023/10/17 04:45:58;;;;;;;18.25;12.40;;;;;;;;;;5040424;28;20264;-89
2023/10/17 04:48:34;;;;;;;19.15;13.15;;;;;;;;;;5054500;28;20219;-89
2023/10/17 04:51:13;;;;;;;18.98;12.00;;;;;;;;;;5054790;28;20274;-89
2023/10/17 04:53:47;;;;;;;21.00;12.07;;;;;;;;;;5054985;28;20213;-89
2023/10/17 04:56:16;;;;;;;20.40;11.57;;;;;;;;;;5054542;28;20218;-88
2023/10/17 04:58:49;;;;;;;21.77;12.90;;;;;;;;;;5054263;28;20191;-88
2023/10/17 05:04:02;;;;;;;15.95;11.27;;;;;;;;;;5054557;28;20183;-89
2023/10/17 06:18:17;;;;;;;22.50;14.23;;;;;;;;;;5052387;28;20256;-89
2023/10/17 06:26:46;;;;;;;23.15;13.38;;;;;;;;;;5051096;28;20572;-88
2023/10/17 06:32:05;;;;;;;18.30;12.27;;;;;;;;;;5017807;28;20198;-88
2023/10/17 06:34:33;;;;;;;24.65;15.30;;;;;;;;;;5052424;28;20194;-89
2023/10/17 06:37:02;;;;;;;24.20;14.43;;;;;;;;;;5051838;28;20202;-88
2023/10/17 06:39:36;;;;;;;25.88;13.60;;;;;;;;;;5051953;28;20207;-89
2023/10/17 06:42:14;;;;;;;21.60;13.63;;;;;;;;;;5052454;28;20229;-89
2023/10/17 06:44:52;;;;;;;19.15;10.30;;;;;;;;;;5052282;28;20600;-89
2023/10/17 06:47:22;;;;;;;15.43;9.70;;;;;;;;;;5051574;28;20203;-88
2023/10/17 06:52:54;;;;;;;12.98;8.80;;;;;;;;;;5044426;28;20218;-88
2023/10/17 06:55:22;;;;;;;12.88;8.50;;;;;;;;;;5050701;28;20233;-88
2023/10/17 06:57:50;;;;;;;9.40;6.88;;;;;;;;;;5051837;28;20198;-87
2023/10/17 07:00:24;;;;;;;11.00;7.43;;;;;;;;;;5050406;28;20633;-87
2023/10/17 07:02:56;;;;;;;11.75;8.57;;;;;;;;;;5046731;28;20186;-88
2023/10/17 07:05:25;;;;;;;12.25;8.30;;;;;;;;;;5051054;28;20588;-89
2023/10/17 07:07:53;;;;;;;11.80;7.53;;;;;;;;;;5052432;28;20288;-89
2023/10/17 07:10:37;;;;;;;11.55;8.68;;;;;;;;;;5052538;28;20927;-88
2023/10/17 07:13:23;;;;;;;9.57;6.70;;;;;;;;;;5051572;28;20180;-89
2023/10/17 07:15:54;;;;;;;12.27;7.20;;;;;;;;;;5052658;28;20568;-89
2023/10/17 07:21:23;;;;;;;13.98;9.05;;;;;;;;;;5052461;28;20170;-89
2023/10/17 07:23:53;;;;;;;11.95;8.07;;;;;;;;;;5052268;28;20185;-89
2023/10/17 07:26:38;;;;;;;15.60;9.35;;;;;;;;;;5052121;28;20613;-87
2023/10/17 07:29:06;;;;;;;11.07;7.93;;;;;;;;;;5052271;28;20274;-89
2023/10/17 07:31:36;;;;;;;13.05;8.20;;;;;;;;;;5051848;28;20237;-89
2023/10/17 07:34:18;;;;;;;13.10;8.40;;;;;;;;;;5052278;28;20195;-88
2023/10/17 07:36:48;;;;;;;10.57;7.53;;;;;;;;;;5052820;28;20266;-89
2023/10/17 07:39:22;;;;;;;11.35;8.20;;;;;;;;;;5055613;28;20259;-89
2023/10/17 07:41:54;;;;;;;10.38;7.20;;;;;;;;;;5055855;28;20191;-88
2023/10/17 07:44:21;;;;;;;12.57;7.43;;;;;;;;;;5055846;28;20186;-89
2023/10/17 07:46:59;;;;;;;10.20;6.68;;;;;;;;;;5055572;28;20245;-88
2023/10/17 07:49:27;;;;;;;8.80;6.05;;;;;;;;;;5055478;28;20748;-89
2023/10/17 07:51:55;;;;;;;12.05;7.97;;;;;;;;;;5055354;28;20673;-88
2023/10/17 07:54:28;;;;;;;9.05;6.82;;;;;;;;;;5055492;28;20198;-85
2023/10/17 07:56:58;;;;;;;10.10;6.35;;;;;;;;;;5055464;28;20634;-89
2023/10/17 07:59:31;;;;;;;11.98;8.05;;;;;;;;;;5055384;28;20182;-89
2023/10/17 08:02:13;;;;;;;10.18;7.60;;;;;;;;;;5055693;28;20186;-89
2023/10/17 08:04:43;;;;;;;10.30;7.47;;;;;;;;;;5055374;28;20179;-89
2023/10/17 08:07:13;;;;;;;10.32;6.88;;;;;;;;;;5055369;28;20242;-89
2023/10/17 08:09:50;;;;;;;12.85;7.93;;;;;;;;;;5055689;28;20266;-89
2023/10/17 08:12:21;;;;;;;15.73;8.48;;;;;;;;;;5055264;28;20179;-89
2023/10/17 08:14:57;;;;;;;9.45;6.50;;;;;;;;;;5055626;28;20183;-89
2023/10/17 08:17:28;;;;;;;9.85;7.30;;;;;;;;;;5055323;28;20629;-88
2023/10/17 08:20:09;;;;;;;10.35;6.95;;;;;;;;;;5055554;28;20240;-89
2023/10/17 08:25:26;;;;;;;12.00;7.80;;;;;;;;;;5055239;28;20194;-89
2023/10/17 08:27:56;;;;;;;9.00;6.53;;;;;;;;;;5054968;28;20210;-89
2023/10/17 08:30:27;;;;;;;9.13;6.60;;;;;;;;;;5055042;28;20194;-89
2023/10/17 08:33:11;;;;;;;12.98;6.50;;;;;;;;;;5054951;28;20214;-90
2023/10/17 08:35:38;;;;;;;10.20;7.53;;;;;;;;;;5055199;28;20187;-89
2023/10/17 08:38:09;;;;;;;11.10;7.03;;;;;;;;;;5054756;28;20236;-89
2023/10/17 08:40:40;;;;;;;9.85;7.07;;;;;;;;;;5055061;28;20285;-89
2023/10/17 08:43:10;;;;;;;10.27;7.55;;;;;;;;;;5055324;28;20183;-89
2023/10/17 08:45:38;;;;;;;11.30;8.18;;;;;;;;;;5054689;28;20183;-89
2023/10/17 08:48:09;;;;;;;10.85;7.47;;;;;;;;;;5054240;28;20652;-88
2023/10/17 08:50:37;;;;;;;10.05;7.43;;;;;;;;;;5054126;28;20194;-89
2023/10/17 08:53:07;;;;;;;9.38;6.68;;;;;;;;;;5054390;28;20194;-89
2023/10/17 08:55:34;;;;;;;10.05;7.65;;;;;;;;;;5054707;28;20201;-89
2023/10/17 08:58:04;;;;;;;13.38;6.57;;;;;;;;;;5054692;28;20252;-89
2023/10/17 09:03:20;;;;;;;12.02;8.18;;;;;;;;;;5053881;28;20268;-88
2023/10/17 09:06:06;;;;;;;8.90;7.13;;;;;;;;;;5054357;28;20186;-88
2023/10/17 09:08:52;;;;;;;8.30;6.07;;;;;;;;;;5054424;28;20272;-89
2023/10/17 09:11:29;;;;;;;9.13;6.78;;;;;;;;;;5053940;28;20178;-88
2023/10/17 09:14:15;;;;;;;7.88;6.78;;;;;;;;;;5053930;28;20174;-88
2023/10/17 09:16:48;;;;;;;9.55;7.03;;;;;;;;;;5054250;28;20191;-87
2023/10/17 09:19:20;;;;;;;8.02;5.93;;;;;;;;;;5053960;28;20183;-89
2023/10/17 09:21:49;;;;;;;9.45;7.70;;;;;;;;;;5054424;28;20581;-89
2023/10/17 09:24:40;;;;;;;8.23;6.72;;;;;;;;;;5054071;28;20202;-89
2023/10/17 09:27:10;;;;;;;7.82;6.07;;;;;;;;;;5052294;28;20709;-89
2023/10/17 09:29:48;;;;;;;10.23;7.27;;;;;;;;;;5053970;28;20179;-89
2023/10/17 09:32:33;;;;;;;8.30;6.53;;;;;;;;;;5053738;28;20449;-88
2023/10/17 09:35:04;;;;;;;7.50;6.00;;;;;;;;;;5054014;28;20764;-89
2023/10/17 09:37:32;;;;;;;7.20;6.27;;;;;;;;;;5053652;28;20895;-90
2023/10/17 09:40:11;;;;;;;8.83;5.87;;;;;;;;;;5053802;28;20444;-90
2023/10/17 09:42:40;;;;;;;8.00;7.13;;;;;;;;;;5053888;28;20456;-89
2023/10/17 09:45:11;;;;;;;8.13;6.87;;;34.00;11.60;;;;;;5053446;28;20991;-90
2023/10/17 09:47:42;;;;;;;8.27;6.70;;;20.70;40.60;;;;;;5053005;28;20568;-91
2023/10/17 09:50:16;;;;;;;7.83;6.50;;;21.30;37.10;;;;;;5053250;28;20433;-91
2023/10/17 09:52:45;;;;;;;8.10;6.00;;;21.60;35.90;;;;;;5053600;28;20483;-90
2023/10/17 09:55:15;;;;;;;8.97;6.53;;;22.60;34.10;;;;;;5053415;28;20448;-91
2023/10/17 09:57:50;;;;;;;6.70;5.23;;;23.20;32.60;;;;;;5053552;28;20460;-91
2023/10/17 10:00:27;;;;;;;5.43;4.70;;;24.00;29.90;;;;;;5053561;28;20518;-91
2023/10/17 10:02:55;;;;;;;7.80;6.27;;;24.70;29.50;;;;;;5052691;28;20524;-88
2023/10/17 10:05:25;;;;;;;7.70;6.20;;;24.80;28.40;;;;;;5053072;28;20429;-92
2023/10/17 10:07:53;;;;;;;7.27;6.27;;;25.10;28.60;;;;;;5052799;28;20531;-91
2023/10/17 10:10:49;;;;;;;8.30;6.90;;;26.10;28.40;;;;;;5050857;28;20528;-91
2023/10/17 10:13:17;;;;;;;6.80;5.93;;;26.60;26.90;;;;;;5053223;28;20507;-91
2023/10/17 10:15:51;;;;;;;6.70;6.00;;;26.40;26.20;;;;;;5053237;28;20437;-92
2023/10/17 10:18:18;;;;;;;6.93;6.23;;;26.70;26.00;;;;;;5052996;28;20535;-91
2023/10/17 10:20:57;;;;;;;8.50;5.87;;;26.60;25.00;;;;;;5053232;28;20473;-91
2023/10/17 10:23:35;;;;;;;7.47;6.67;;;25.90;26.50;;;;;;5053193;28;20433;-91
2023/10/17 10:26:16;;;;;;;8.30;6.40;;;26.90;26.90;;;;;;5053073;28;20429;-92
2023/10/17 10:28:44;;;;;;;6.87;6.17;;;28.40;24.20;;;;;;5051334;28;20432;-89
2023/10/17 10:31:38;;;;;;;6.40;5.80;;;28.80;23.30;;;;;;5052748;28;20437;-89
2023/10/17 10:34:07;;;;;;;7.77;6.70;;;28.50;22.80;;;;;;5052616;28;20433;-90
2023/10/17 10:36:37;;;;;;;7.73;7.00;;;27.80;23.30;;;;;;5052837;28;20433;-90
2023/10/17 10:39:18;;;;;;;7.80;6.00;;;26.90;24.00;;;;;;5052960;28;20465;-89
2023/10/17 10:41:59;;;;;;;7.17;5.20;;;25.80;24.50;;;;;;5052731;28;20487;-90
2023/10/17 10:44:26;;;;;;;9.87;7.23;;;24.70;25.90;;;;;;5052851;28;20499;-90
2023/10/17 10:46:54;;;;;;;7.93;5.57;;;24.00;26.50;;;;;;5052675;28;20438;-90
2023/10/17 10:49:27;;;;;;;8.47;6.90;;;23.70;26.90;;;;;;5052689;28;20473;-90
2023/10/17 10:51:59;;;;;;;8.43;6.23;;;23.80;27.70;;;;;;5052675;28;20457;-90
2023/10/17 10:54:27;;;;;;;7.37;5.73;;;24.10;27.80;;;;;;5053074;28;20418;-90
2023/10/17 10:56:55;;;;;;;8.53;5.87;;;24.20;27.80;;;;;;5052574;28;20531;-90
2023/10/17 10:59:23;;;;;;;7.93;6.13;;;24.60;27.60;;;;;;5052760;28;20469;-89
2023/10/17 11:01:50;;;;;;;8.00;6.33;;;25.40;26.90;;;;;;5052761;28;20499;-90
2023/10/17 11:04:18;;;;;;;7.40;6.53;;;26.30;26.50;;;;;;5051770;28;20441;-89
2023/10/17 11:06:45;;;;;;;7.80;6.00;;;27.50;25.20;;;;;;5041686;28;20443;-88
2023/10/17 11:09:23;;;;;;;6.97;5.60;;;28.80;24.10;;;;;;5045672;28;20517;-88
2023/10/17 11:11:53;;;;;;;6.10;5.37;;;30.30;22.70;;;;;;5053023;28;20434;-89
2023/10/17 11:14:22;;;;;;;6.10;5.30;;;31.10;21.30;;;;;;5055500;28;20530;-85
2023/10/17 11:16:51;;;;;;;8.00;5.73;;;30.50;20.60;;;;;;5055504;28;20535;-85
2023/10/17 11:19:21;;;;;;;6.80;5.33;;;29.30;21.00;;;;;;5056049;28;20472;-85
2023/10/17 11:21:55;;;;;;;6.70;5.10;;;27.70;22.60;;;;;;5056562;28;20437;-86
2023/10/17 11:24:28;;;;;;;8.07;5.60;;;26.30;23.90;;;;;;5056684;28;20423;-86
2023/10/17 11:26:56;;;;;;;7.30;6.27;;;25.20;24.70;;;;;;5049297;28;20498;-87
2023/10/17 11:29:25;;;;;;;8.57;5.73;;;24.30;26.20;;;;;;5053450;28;20531;-86
2023/10/17 11:31:54;;;;;;;5.93;4.80;;;23.90;26.50;;;;;;5055149;28;20524;-86
2023/10/17 11:34:32;;;;;;;9.73;5.53;;;23.70;27.30;;;;;;5055716;28;20483;-85
2023/10/17 11:37:11;;;;;;;9.43;5.97;;;23.40;27.20;;;;;;5055993;28;20435;-86
2023/10/17 11:39:42;;;;;;;6.70;5.63;;;23.10;27.70;;;;;;5055105;28;20464;-86
2023/10/17 11:42:09;;;;;;;6.47;4.80;;;22.80;28.40;;;;;;5055810;28;20433;-87
2023/10/17 11:44:46;;;;;;;6.90;4.57;;;22.80;28.60;;;;;;5055813;28;20475;-86
2023/10/17 11:47:22;;;;;;;7.80;5.30;;;23.50;29.60;;;;;;5055882;28;20505;-87
2023/10/17 11:49:50;;;;;;;7.83;5.97;;;25.30;28.50;;;;;;5015560;28;20434;-86
2023/10/17 11:52:18;;;;;;;6.37;5.30;;;27.10;26.80;;;;;;5016225;28;20431;-86
2023/10/17 11:54:57;;;;;;;5.80;5.10;;;28.40;24.40;;;;;;5019087;28;20934;-85
2023/10/17 11:57:25;;;;;;;5.67;4.70;;;29.60;23.70;;;;;;5015834;28;20420;-85
2023/10/17 12:00:01;;;;;;;9.90;5.20;;;30.60;22.50;;;;;;5015081;28;20435;-86
2023/10/17 12:02:29;;;;;;;5.90;5.30;;;31.60;21.30;;;;;;5015975;28;20435;-86
2023/10/17 12:04:56;;;;;;;6.60;5.47;;;32.30;20.60;;;;;;5015569;28;20513;-87
2023/10/17 12:07:23;;;;;;;5.90;4.80;;;32.50;20.20;;;;;;5015859;28;20531;-87
2023/10/17 12:09:53;;;;;;;6.00;5.40;;;32.60;20.10;;;;;;5015441;28;20805;-86
2023/10/17 12:12:22;;;;;;;11.37;5.40;;;32.70;18.90;;;;;;5015137;28;20454;-86
2023/10/17 12:14:51;;;;;;;6.90;4.87;;;32.30;19.70;;;;;;5015960;28;20439;-85
2023/10/17 12:17:20;;;;;;;5.60;4.70;;;31.80;19.80;;;;;;5015755;28;20448;-86
2023/10/17 12:19:47;;;;;;;6.17;5.47;;;31.10;20.60;;;;;;5015717;28;20481;-86
2023/10/17 12:22:14;;;;;;;6.63;5.10;;;30.40;21.00;;;;;;5015912;28;20471;-86
2023/10/17 12:24:42;;;;;;;5.90;5.30;;;29.60;21.50;;;;;;5014660;28;20489;-87
2023/10/17 12:27:12;;;;;;;5.00;4.50;;;28.60;22.10;;;;;;5015742;28;20446;-87
2023/10/17 12:29:40;;;;;;;7.33;5.20;;;27.40;23.30;;;;;;5016132;28;20496;-86
2023/10/17 12:32:10;;;;;;;6.63;4.93;;;26.20;24.50;;;;;;5015237;28;20431;-87
2023/10/17 12:34:39;;;;;;;5.60;4.83;;;25.00;26.10;;;;;;5015906;28;20438;-87
2023/10/17 12:37:10;;;;;;;7.67;5.60;;;24.00;27.10;;;;;;5015722;28;20439;-86
2023/10/17 12:39:37;;;;;;;5.00;4.40;;;23.20;28.10;;;;;;5015201;28;20470;-87
2023/10/17 12:42:05;;;;;;;5.30;4.63;;;22.50;29.30;;;;;;5015491;28;20493;-87
2023/10/17 12:44:32;;;;;;;6.20;4.50;;;21.90;30.00;;;;;;5015313;28;20444;-87
2023/10/17 12:47:01;;;;;;;6.97;4.90;;;21.40;31.10;;;;;;5015569;28;20518;-88
2023/10/17 12:49:28;;;;;;;6.80;5.13;;;21.00;31.90;;;;;;5051400;28;20542;-89
2023/10/17 12:51:56;;;;;;;7.07;5.00;;;20.70;32.90;;;;;;5054741;28;20437;-89
2023/10/17 12:54:26;;;;;;;6.20;4.93;;;20.30;33.70;;;;;;5054918;28;20441;-88
2023/10/17 12:56:53;;;;;;;8.23;5.43;;;19.90;34.60;;;;;;5054780;28;20464;-89
2023/10/17 12:59:20;;;;;;;8.60;6.13;;;19.60;35.40;;;;;;5054626;28;20567;-89
2023/10/17 13:01:48;;;;;;;6.30;5.43;;;19.40;36.20;;;;;;5054748;28;20440;-89
2023/10/17 13:04:19;;;;;;;8.27;6.43;;;19.20;36.90;;;;;;5054730;28;20438;-90
2023/10/17 13:06:48;;;;;;;8.43;6.43;;;19.10;37.30;;;;;;5054484;28;20900;-89
2023/10/17 13:09:15;;;;;;;7.10;5.77;;;19.00;38.20;;;;;;5054602;28;20499;-89
2023/10/17 13:11:42;;;;;;;7.80;7.00;;;18.90;39.00;;;;;;5054555;28;20460;-89
2023/10/17 13:14:08;;;;;;;10.73;8.00;;;18.80;38.50;;;;;;5054229;28;20433;-89
2023/10/17 13:16:35;;;;;;;8.30;7.40;;;18.50;38.80;;;;;;5054676;28;20488;-89
2023/10/17 13:19:06;;;;;;;9.53;6.90;;;18.30;39.70;;;;;;5054357;28;20530;-89
2023/10/17 13:21:37;;;;;;;9.27;7.00;;;18.10;40.30;;;;;;5054628;28;20533;-89
2023/10/17 13:24:07;;;;;;;8.07;6.87;;;17.90;41.20;;;;;;5054604;28;20457;-90
2023/10/17 13:26:37;;;;;;;7.80;6.37;;;17.80;41.60;;;;;;5054028;28;20430;-89
2023/10/17 13:29:05;;;;;;;6.97;6.23;;;17.80;41.50;;;;;;5054531;28;20809;-89
2023/10/17 13:31:33;;;;;;;7.90;6.80;;;17.60;41.90;;;;;;5054293;28;20437;-89
2023/10/17 13:34:00;;;;;;;8.13;6.70;;;17.60;42.40;;;;;;5054186;28;20439;-89
2023/10/17 13:36:27;;;;;;;8.17;6.47;;;17.50;43.10;;;;;;5053938;28;20814;-90
2023/10/17 13:38:56;;;;;;;10.13;7.37;;;;;;;;;;5053993;28;20526;-90
2023/10/17 13:41:25;;;;;;;8.57;6.67;;;;;;;;;;5054035;28;20510;-90
2023/10/17 13:43:54;;;;;;;8.80;6.40;;;;;;;;;;5053700;28;20940;-89
2023/10/17 13:46:21;;;;;;;9.63;7.30;;;;;;;;;;5054195;28;20444;-90
2023/10/17 13:48:49;;;;;;;7.20;6.20;;;;;;;;;;5053461;28;20480;-90
2023/10/17 13:51:17;;;;;;;8.93;6.57;;;;;;;;;;5053971;28;20524;-90
2023/10/17 13:53:45;;;;;;;8.17;6.70;;;;;;;;;;5053539;28;20445;-90
2023/10/17 13:56:18;;;;;;;9.57;6.73;;;;;;;;;;5053640;28;20440;-90
2023/10/17 13:58:46;;;;;;;8.33;6.87;;;;;;;;;;5053642;28;20461;-90
2023/10/17 14:01:31;;;;;;;8.23;7.40;;;;;;;;;;5053408;28;20469;-90
2023/10/17 14:04:00;;;;;;;9.07;7.37;;;;;;;;;;5053271;28;20465;-89
2023/10/17 14:06:28;;;;;;;8.10;6.30;;;;;;;;;;5035438;28;20466;-89
2023/10/17 14:08:55;;;;;;;9.27;7.53;;;;;;;;;;5033440;28;20450;-89
2023/10/17 14:11:24;;;;;;;8.73;7.27;;;;;;;;;;5033338;28;20905;-89
2023/10/17 14:13:51;;;;;;;8.93;7.20;;;;;;;;;;5033326;28;20937;-90
2023/10/17 14:16:22;;;;;;;8.00;6.40;;;;;;;;;;5033500;28;20445;-90
2023/10/17 14:19:02;;;;;;;8.30;6.27;;;;;;;;;;5033357;28;20528;-89
2023/10/17 14:21:36;;;;;;;8.40;6.90;;;;;;;;;;5033608;28;20469;-86
2023/10/17 14:24:07;;;;;;;7.30;5.93;;;;;;;;;;5033185;28;20419;-90
2023/10/17 14:26:35;;;;;;;7.47;6.57;;;;;;;;;;5033025;28;20427;-89
2023/10/17 14:29:03;;;;;;;8.30;7.13;;;;;;;;;;5033117;28;20448;-90
2023/10/17 14:31:29;;;;;;;7.30;6.13;;;;;;;;;;5033259;28;20788;-90
2023/10/17 14:33:57;;;;;;;8.50;6.47;;;;;;;;;;5032907;28;20438;-90
2023/10/17 14:36:26;;;;;;;8.00;5.80;;;;;;;;;;5033239;28;20495;-90
2023/10/17 14:38:54;;;;;;;9.10;6.37;;;;;;;;;;5033279;28;20942;-90
2023/10/17 14:41:22;;;;;;;8.07;7.03;;;;;;;;;;5033275;28;20783;-90
2023/10/17 14:43:51;;;;;;;12.30;8.00;;;;;;;;;;5032919;28;20440;-90
2023/10/17 14:46:20;;;;;;;8.93;7.47;;;;;;;;;;5032708;28;21007;-90
2023/10/17 14:48:47;;;;;;;8.50;6.40;;;;;;;;;;5037065;28;20470;-90
2023/10/17 14:51:15;;;;;;;8.17;6.90;;;;;;;;;;5037180;28;20484;-90
2023/10/17 14:53:43;;;;;;;8.47;6.43;;;;;;;;;;5037078;28;20498;-90
2023/10/17 14:56:12;;;;;;;7.40;6.60;;;;;;;;;;5036777;28;20778;-89
2023/10/17 14:58:40;;;;;;;7.13;5.70;;;;;;;;;;5036763;28;20476;-90
2023/10/17 15:01:10;;;;;;;8.43;7.00;;;;;;;;;;5037106;28;20453;-89
2023/10/17 15:03:38;;;;;;;8.23;7.43;;;;;;;;;;5036532;28;20449;-89
2023/10/17 15:06:06;;;;;;;9.97;8.70;;;;;;;;;;5036664;28;20457;-90
2023/10/17 15:08:33;;;;;;;7.30;6.30;;;;;;;;;;5036682;28;20437;-89
2023/10/17 15:11:10;;;;;;;9.07;7.73;;;;;;;;;;5036788;28;20530;-90
2023/10/17 15:13:37;;;;;;;11.87;8.20;;;;;;;;;;5036731;28;20777;-90
2023/10/17 15:16:13;;;;;;;9.00;7.07;;;;;;;;;;5036914;28;20469;-90
2023/10/17 15:18:42;;;;;;;8.50;7.13;;;;;;;;;;5036146;28;20472;-90
2023/10/17 15:21:11;;;;;;;8.20;7.07;;;;;;;;;;5036585;28;20762;-90
2023/10/17 15:23:40;;;;;;;9.60;7.27;;;;;;;;;;5036244;28;20438;-90
2023/10/17 15:26:07;;;;;;;9.93;7.67;;;;;;;;;;5036670;28;20474;-90
2023/10/17 15:28:34;;;;;;;6.70;6.00;;;;;;;;;;5036116;28;20457;-90
2023/10/17 15:31:05;;;;;;;8.47;6.30;;;;;;;;;;5036319;28;20474;-89
2023/10/17 15:33:33;;;;;;;10.23;7.07;;;;;;;;;;5035968;28;20529;-90
2023/10/17 15:36:02;;;;;;;9.97;6.93;;;;;;;;;;5036269;28;21024;-90
2023/10/17 15:38:30;;;;;;;8.30;6.90;;;;;;;;;;5036043;28;20433;-89
2023/10/17 15:40:58;;;;;;;9.70;7.73;;;;;;;;;;5036389;28;20430;-90
2023/10/17 15:43:26;;;;;;;8.37;6.80;;;;;;;;;;5036384;28;20504;-89
2023/10/17 15:45:54;;;;;;;7.90;6.50;;;;;;;;;;5036322;28;20468;-90
2023/10/17 15:48:22;;;;;;;8.00;6.50;;;;;;;;;;5037637;28;20462;-90
2023/10/17 15:50:50;;;;;;;9.17;7.07;;;17.60;43.30;;;;;;5036219;28;20449;-90
2023/10/17 15:53:19;;;;;;;12.27;9.37;;;13.40;58.90;;;;;;5036197;28;20461;-90
2023/10/17 15:55:53;;;;;;;13.27;9.73;;;13.10;59.60;;;;;;5036142;28;20430;-90